Time;durP1;ratioP1;P1;durP2;ratioP2;P2;SDS_P1;SDS_P2;PMS_P1;PMS_P2;Temp;Humidity;BMP_temperature;BMP_pressure;BME280_temperature;BME280_humidity;BME280_pressure;Samples;Min_cycle;Max_cycle;Signal;HPM_P1;HPM_P2
2023/04/30 07:28:52;;;;;;;;;;;;;;;;;;;;;
2023/04/30 18:00:03;;;;;;;13.80;5.30;;;;;;;11.55;50.94;99303.13;106922;1253;101024;-76
2023/04/30 18:02:31;;;;;;;19.20;5.70;;;;;;;11.45;50.94;99302.21;107017;1251;107478;-78
2023/04/30 18:04:57;;;;;;;12.20;4.90;;;;;;;11.38;51.02;99311.08;107057;1257;96328;-79
2023/04/30 18:07:24;;;;;;;24.60;9.30;;;;;;;11.28;50.80;99310.52;107966;1243;95315;-76
2023/04/30 18:09:51;;;;;;;20.50;7.60;;;;;;;11.20;50.83;99310.23;108301;1243;95200;-77
2023/04/30 18:12:17;;;;;;;21.70;8.20;;;;;;;11.13;50.85;99313.95;108441;1237;96052;-78
2023/04/30 18:14:47;;;;;;;22.10;9.10;;;;;;;11.05;50.70;99312.52;108441;1238;95303;-81
2023/04/30 18:17:15;;;;;;;26.20;11.40;;;;;;;10.95;50.73;99316.22;108452;1236;95162;-82
2023/04/30 18:19:47;;;;;;;36.80;16.50;;;;;;;10.85;50.69;99317.97;108512;1231;108196;-81
2023/04/30 18:22:13;;;;;;;48.00;23.00;;;;;;;10.77;50.55;99320.32;108494;1231;100555;-82
2023/04/30 18:24:41;;;;;;;80.80;38.50;;;;;;;10.69;50.55;99329.36;108458;1238;95823;-87
2023/04/30 18:27:09;;;;;;;81.60;41.70;;;;;;;10.61;50.58;99335.10;108537;1237;96134;-86
2023/04/30 18:29:36;;;;;;;61.50;32.40;;;;;;;10.51;50.60;99338.55;108385;1236;95248;-88
2023/04/30 18:32:03;;;;;;;53.80;30.30;;;;;;;10.42;50.58;99341.09;108333;1232;96138;-88
2023/04/30 18:34:31;;;;;;;43.50;23.80;;;;;;;10.35;50.60;99344.41;108543;1238;95288;-89
2023/04/30 18:36:57;;;;;;;60.50;35.20;;;;;;;10.26;50.63;99350.13;108580;1231;95300;-90
2023/04/30 18:39:23;;;;;;;61.70;36.60;;;;;;;10.18;50.60;99353.89;108638;1237;96145;-88
2023/04/30 18:41:53;;;;;;;44.90;26.20;;;;;;;10.05;50.75;99359.32;109033;1231;95292;-90
2023/04/30 18:44:30;;;;;;;40.80;22.20;;;;;;;9.92;50.62;99363.88;108669;1244;100783;-87
2023/04/30 18:46:57;;;;;;;34.30;18.30;;;;;;;9.78;50.75;99368.64;108793;1237;105671;-88
2023/04/30 18:49:24;;;;;;;32.30;15.50;;;;;;;9.67;50.79;99373.81;108915;1236;95286;-87
2023/04/30 18:51:50;;;;;;;27.50;12.90;;;;;;;9.58;50.86;99374.75;108458;1231;95647;-88
2023/04/30 18:54:17;;;;;;;26.30;11.80;;;;;;;9.49;50.94;99375.85;109068;1236;95232;-87
2023/04/30 18:56:49;;;;;;;26.30;11.40;;;;;;;9.39;50.86;99377.85;108768;1237;99716;-88
2023/04/30 18:59:15;;;;;;;30.70;12.40;;;;;;;9.29;50.82;99379.77;108491;1236;106940;-77
2023/04/30 19:01:42;;;;;;;29.80;13.70;;;;;;;9.24;50.82;99386.93;108648;1238;95296;-78
2023/04/30 19:04:12;;;;;;;30.10;13.20;;;;;;;9.18;50.76;99387.66;108542;1237;95164;-78
2023/04/30 19:06:38;;;;;;;31.00;15.70;;;;;;;9.12;50.87;99390.70;108239;1231;108532;-75
2023/04/30 19:09:05;;;;;;;37.00;15.90;;;;;;;9.06;50.88;99400.77;108618;1232;95316;-79
2023/04/30 19:11:34;;;;;;;39.30;18.80;;;;;;;8.99;50.78;99396.79;108539;1231;95310;-79
2023/04/30 19:14:01;;;;;;;38.80;19.20;;;;;;;8.95;50.76;99401.05;108722;1236;95204;-80
2023/04/30 19:16:29;;;;;;;39.30;17.60;;;;;;;8.90;50.76;99401.05;108660;1232;95622;-84
2023/04/30 19:18:56;;;;;;;37.30;17.60;;;;;;;8.85;50.88;99401.33;108482;1236;95241;-82
2023/04/30 19:21:23;;;;;;;38.60;17.80;;;;;;;8.75;50.90;99396.62;108374;1236;95214;-81
2023/04/30 19:23:52;;;;;;;40.40;18.20;;;;;;;8.67;51.04;99398.86;108272;1237;95313;-83
2023/04/30 19:26:20;;;;;;;40.70;17.40;;;;;;;8.58;51.00;99399.39;108524;1236;95272;-89
2023/04/30 19:28:49;;;;;;;35.50;15.70;;;;;;;8.48;51.00;99404.38;108637;1231;95324;-83
2023/04/30 19:31:16;;;;;;;35.70;15.60;;;;;;;8.39;51.09;99406.27;108335;1244;108164;-84
2023/04/30 19:33:44;;;;;;;33.30;14.90;;;;;;;8.29;51.18;99406.52;108597;1235;95361;-84
2023/04/30 19:36:10;;;;;;;30.10;14.30;;;;;;;8.21;50.94;99412.99;108505;1237;95270;-84
2023/04/30 19:38:37;;;;;;;32.70;15.10;;;;;;;8.13;51.10;99408.98;108598;1244;96224;-83
2023/04/30 19:41:03;;;;;;;30.80;13.70;;;;;;;8.06;51.13;99413.80;108427;1237;97043;-84
2023/04/30 19:43:30;;;;;;;32.60;14.40;;;;;;;8.03;51.09;99417.88;108446;1237;96861;-79
2023/04/30 19:45:58;;;;;;;29.70;14.00;;;;;;;7.99;51.14;99417.20;108149;1237;107450;-84
2023/04/30 19:48:41;;;;;;;32.00;14.90;;;;;;;7.98;51.32;99420.27;108413;1236;96615;-85
2023/04/30 19:51:08;;;;;;;28.90;13.50;;;;;;;7.91;51.11;99425.23;108170;1238;96551;-85
2023/04/30 19:53:45;;;;;;;32.30;14.90;;;;;;;7.83;51.28;99423.75;108480;1234;110390;-83
2023/04/30 19:56:12;;;;;;;31.40;16.30;;;;;;;7.73;51.49;99422.70;108405;1237;100786;-84
2023/04/30 19:58:47;;;;;;;31.10;14.50;;;;;;;7.65;51.47;99431.27;108425;1237;107514;-86
2023/04/30 20:01:13;;;;;;;33.00;16.00;;;;;;;7.58;51.46;99431.61;108331;1236;96649;-84
2023/04/30 20:03:41;;;;;;;29.10;15.00;;;;;;;7.54;51.38;99435.03;108476;1236;96614;-84
2023/04/30 20:06:08;;;;;;;26.90;12.70;;;;;;;7.48;51.57;99438.16;108338;1236;96624;-84
2023/04/30 20:08:38;;;;;;;26.50;11.90;;;;;;;7.43;51.39;99441.26;108392;1244;97078;-82
2023/04/30 20:11:05;;;;;;;29.40;11.60;;;;;;;7.42;51.58;99444.14;108177;1241;106529;-84
2023/04/30 20:13:31;;;;;;;28.00;12.00;;;;;;;7.37;51.70;99444.41;108083;1232;96649;-85
2023/04/30 20:15:58;;;;;;;29.80;13.30;;;;;;;7.30;51.48;99446.52;108397;1231;96582;-83
2023/04/30 20:18:26;;;;;;;27.00;12.10;;;;;;;7.23;51.80;99445.83;108346;1236;97069;-81
2023/04/30 20:20:54;;;;;;;32.00;15.30;;;;;;;7.21;51.54;99449.30;108146;1237;96660;-84
2023/04/30 20:23:21;;;;;;;33.70;17.20;;;;;;;7.19;51.83;99448.72;108246;1237;97698;-84
2023/04/30 20:25:48;;;;;;;37.60;18.30;;;;;;;7.15;51.85;99452.42;108288;1235;96572;-85
2023/04/30 20:28:17;;;;;;;38.30;19.20;;;;;;;7.11;52.00;99455.14;108334;1237;97116;-84
2023/04/30 20:30:43;;;;;;;41.50;18.30;;;;;;;7.05;51.59;99457.91;108427;1231;96662;-84
2023/04/30 20:33:19;;;;;;;42.20;21.90;;;;;;;7.03;52.26;99457.66;108406;1237;96679;-84
2023/04/30 20:35:46;;;;;;;35.00;17.90;;;;;;;6.96;52.02;99456.37;108270;1247;106861;-82
2023/04/30 20:38:14;;;;;;;39.10;18.30;;;;;;;6.96;52.15;99460.29;108145;1231;96600;-84
2023/04/30 20:40:41;;;;;;;34.70;16.90;;;;;;;6.89;52.28;99461.55;108286;1236;97078;-82
2023/04/30 20:43:11;;;;;;;33.10;15.70;;;;;;;6.81;52.08;99462.42;108678;1234;109348;-85
2023/04/30 20:45:39;;;;;;;31.20;15.60;;;;;;;6.79;52.23;99467.29;109931;1235;100481;-84
2023/04/30 20:48:08;;;;;;;28.60;12.90;;;;;;;6.76;52.19;99470.11;108418;1236;107543;-85
2023/04/30 20:50:36;;;;;;;28.20;13.00;;;;;;;6.69;52.35;99473.28;109281;1235;96566;-86
2023/04/30 20:53:03;;;;;;;29.90;13.10;;;;;;;6.67;52.34;99467.91;108323;1236;97058;-84
2023/04/30 20:55:41;;;;;;;28.80;13.90;;;;;;;6.62;52.37;99467.08;108679;1232;96660;-91
2023/04/30 20:58:11;;;;;;;33.70;15.00;;;;;;;6.57;52.38;99469.10;108111;1244;100709;-83
2023/04/30 21:00:41;;;;;;;34.00;15.30;;;;;;;6.54;52.63;99473.14;108286;1238;96666;-83
2023/04/30 21:03:10;;;;;;;32.00;15.30;;;;;;;6.52;52.39;99473.58;108972;1234;96646;-84
2023/04/30 21:05:39;;;;;;;35.80;17.40;;;;;;;6.47;52.51;99478.27;108887;1235;96985;-83
2023/04/30 21:08:06;;;;;;;34.60;17.40;;;;;;;6.43;52.47;99481.63;108347;1236;108487;-81
2023/04/30 21:10:34;;;;;;;32.80;15.90;;;;;;;6.40;52.54;99480.52;108333;1231;97195;-82
2023/04/30 21:13:03;;;;;;;36.40;15.40;;;;;;;6.38;52.38;99484.66;111512;1231;107450;-79
2023/04/30 21:15:33;;;;;;;38.00;15.00;;;;;;;6.34;52.53;99485.39;111259;1231;94308;-79
2023/04/30 21:18:04;;;;;;;32.30;15.30;;;;;;;6.33;52.59;99483.85;111523;1231;94161;-80
2023/04/30 21:20:32;;;;;;;33.40;14.70;;;;;;;6.34;52.67;99486.63;111468;1231;109107;-80
2023/04/30 21:22:58;;;;;;;33.50;15.50;;;;;;;6.30;52.80;99486.48;111171;1231;94570;-80
2023/04/30 21:25:30;;;;;;;35.50;16.70;;;;;;;6.25;52.66;99487.59;111321;1234;108952;-84
2023/04/30 21:27:58;;;;;;;34.80;17.20;;;;;;;6.21;52.62;99490.23;111464;1231;94221;-80
2023/04/30 21:30:27;;;;;;;34.90;17.00;;;;;;;6.21;52.84;99492.71;111487;1231;94629;-79
2023/04/30 21:32:56;;;;;;;37.80;18.70;;;;;;;6.19;52.88;99495.96;108579;1237;109818;-81
2023/04/30 21:35:31;;;;;;;40.10;18.60;;;;;;;6.18;52.81;99496.55;108164;1232;100603;-81
2023/04/30 21:38:04;;;;;;;31.70;16.00;;;;;;;6.16;52.83;99495.58;108251;1236;107523;-81
2023/04/30 21:40:32;;;;;;;31.30;14.50;;;;;;;6.13;53.00;99496.95;108441;1240;96602;-80
2023/04/30 21:43:00;;;;;;;30.50;13.20;;;;;;;6.09;53.00;99498.88;108288;1234;97028;-81
2023/04/30 21:45:26;;;;;;;27.00;12.60;;;;;;;6.09;52.96;99498.36;108520;1236;108678;-81
2023/04/30 21:47:55;;;;;;;26.90;10.70;;;;;;;6.08;53.15;99497.54;108551;1235;97898;-82
2023/04/30 21:50:23;;;;;;;31.70;13.20;;;;;;;6.06;53.18;99500.61;108564;1237;107648;-82
2023/04/30 21:52:50;;;;;;;26.70;11.30;;;;;;;6.05;53.41;99502.25;108267;1237;96580;-81
2023/04/30 21:55:17;;;;;;;25.30;11.20;;;;;;;6.04;53.04;99505.31;110590;1234;94831;-83
2023/04/30 21:57:46;;;;;;;27.20;10.90;;;;;;;6.01;53.24;99505.59;108433;1232;109704;-82
2023/04/30 22:00:15;;;;;;;25.30;9.90;;;;;;;5.96;53.25;99505.11;108603;1237;99890;-81
2023/04/30 22:02:42;;;;;;;25.20;10.90;;;;;;;5.93;53.35;99511.72;108439;1231;107821;-81
2023/04/30 22:05:11;;;;;;;25.60;10.20;;;;;;;5.93;53.55;99514.04;108371;1237;96587;-81
2023/04/30 22:07:41;;;;;;;28.80;11.20;;;;;;;5.91;53.40;99514.30;108187;1235;97015;-81
2023/04/30 22:10:09;;;;;;;26.50;10.50;;;;;;;5.89;53.65;99518.46;108144;1237;96663;-82
2023/04/30 22:12:40;;;;;;;26.10;11.20;;;;;;;5.85;53.56;99521.83;108287;1243;102473;-81
2023/04/30 22:15:07;;;;;;;26.70;11.40;;;;;;;5.82;53.67;99522.14;108269;1238;109487;-80
2023/04/30 22:17:34;;;;;;;24.50;10.80;;;;;;;5.75;53.65;99521.02;108229;1237;97771;-84
2023/04/30 22:20:03;;;;;;;25.20;11.20;;;;;;;5.71;53.84;99520.17;108300;1235;97059;-82
2023/04/30 22:22:30;;;;;;;24.10;10.70;;;;;;;5.67;53.63;99518.59;108474;1235;109862;-81
2023/04/30 22:24:56;;;;;;;25.10;10.90;;;;;;;5.66;53.82;99523.70;108267;1237;96586;-81
2023/04/30 22:27:23;;;;;;;26.10;10.30;;;;;;;5.66;53.75;99521.42;108066;1236;97770;-81
2023/04/30 22:29:49;;;;;;;24.30;10.10;;;;;;;5.65;53.82;99517.27;108391;1244;96592;-80
2023/04/30 22:32:18;;;;;;;25.70;9.90;;;;;;;5.61;53.88;99520.27;108355;1235;97926;-81
2023/04/30 22:34:45;;;;;;;24.40;10.40;;;;;;;5.58;53.92;99520.56;108274;1232;100830;-82
2023/04/30 22:37:13;;;;;;;23.50;10.20;;;;;;;5.56;54.06;99517.31;108686;1231;107496;-82
2023/04/30 22:39:40;;;;;;;24.70;10.30;;;;;;;5.52;53.93;99522.38;108320;1236;96684;-81
2023/04/30 22:42:10;;;;;;;26.00;10.40;;;;;;;5.51;54.00;99527.03;108243;1235;97870;-81
2023/04/30 22:44:36;;;;;;;24.60;10.60;;;;;;;5.49;53.98;99527.46;108299;1237;97027;-81
2023/04/30 22:47:04;;;;;;;27.80;9.80;;;;;;;5.49;54.00;99528.33;108276;1231;97805;-81
2023/04/30 22:49:33;;;;;;;26.80;9.40;;;;;;;5.47;53.95;99532.33;108268;1237;96734;-80
2023/04/30 22:52:00;;;;;;;26.10;10.00;;;;;;;5.44;53.97;99528.58;108242;1238;96571;-81
2023/04/30 22:54:30;;;;;;;24.60;9.90;;;;;;;5.42;54.12;99528.83;108351;1232;96612;-82
2023/04/30 22:56:57;;;;;;;25.70;10.80;;;;;;;5.41;54.27;99531.01;108234;1238;109854;-81
2023/04/30 22:59:23;;;;;;;25.40;9.30;;;;;;;5.36;54.34;99531.52;108255;1231;97026;-81
2023/04/30 23:01:51;;;;;;;25.20;9.20;;;;;;;5.34;54.29;99530.05;108056;1238;97848;-82
2023/04/30 23:04:18;;;;;;;24.70;10.40;;;;;;;5.31;54.30;99532.44;108306;1236;96714;-80
2023/04/30 23:06:45;;;;;;;24.30;8.90;;;;;;;5.30;54.43;99534.10;108333;1245;97298;-82
2023/04/30 23:09:14;;;;;;;25.00;10.00;;;;;;;5.28;54.39;99532.23;108225;1235;97282;-81
2023/04/30 23:11:43;;;;;;;21.00;8.50;;;;;;;5.25;54.43;99533.11;108552;1237;97802;-83
2023/04/30 23:14:11;;;;;;;25.90;8.70;;;;;;;5.22;54.46;99537.08;108031;1236;107525;-81
2023/04/30 23:16:41;;;;;;;21.10;8.20;;;;;;;5.19;54.52;99539.46;108356;1237;97471;-81
2023/04/30 23:19:08;;;;;;;23.10;8.70;;;;;;;5.17;54.43;99540.61;108471;1237;96987;-81
2023/04/30 23:21:35;;;;;;;21.90;8.10;;;;;;;5.14;54.59;99541.27;108091;1238;96628;-81
2023/04/30 23:24:03;;;;;;;24.50;8.60;;;;;;;5.12;54.50;99542.22;108095;1237;97507;-82
2023/04/30 23:26:34;;;;;;;21.10;7.70;;;;;;;5.11;54.55;99541.94;108337;1237;108244;-82
2023/04/30 23:29:01;;;;;;;22.20;8.00;;;;;;;5.10;54.61;99543.58;108113;1239;97895;-82
2023/04/30 23:31:30;;;;;;;20.60;7.40;;;;;;;5.09;54.67;99544.85;108332;1238;96868;-78
2023/04/30 23:34:01;;;;;;;21.80;7.50;;;;;;;5.08;54.82;99551.04;108193;1237;109427;-83
2023/04/30 23:36:30;;;;;;;23.10;7.80;;;;;;;5.06;54.82;99550.23;108334;1236;100535;-81
2023/04/30 23:38:56;;;;;;;21.40;7.70;;;;;;;5.04;54.79;99556.45;108296;1231;96601;-82
2023/04/30 23:41:24;;;;;;;23.20;7.80;;;;;;;5.00;54.83;99552.59;108237;1247;97810;-81
2023/04/30 23:43:51;;;;;;;23.10;7.50;;;;;;;5.00;54.90;99556.63;108305;1235;96668;-81
2023/04/30 23:46:18;;;;;;;24.50;8.00;;;;;;;4.99;54.94;99555.45;108068;1247;97909;-81
2023/04/30 23:48:50;;;;;;;22.60;8.10;;;;;;;4.98;54.96;99556.73;108150;1237;99779;-86
2023/04/30 23:51:21;;;;;;;22.20;7.50;;;;;;;4.97;54.90;99557.80;108336;1235;105683;-81
2023/04/30 23:53:57;;;;;;;21.10;7.40;;;;;;;4.93;54.94;99555.87;108337;1236;96634;-85
2023/04/30 23:56:25;;;;;;;20.20;7.10;;;;;;;4.90;55.08;99559.34;108225;1234;97011;-79
2023/04/30 23:58:52;;;;;;;19.70;7.50;;;;;;;4.85;55.13;99559.73;108346;1241;97831;-81
